sensor_id;sensor_type;location;lat;lon;timestamp;pressure;altitude;pressure_sealevel;temperature;humidity
28448;BME280;15675;52.870;-1.416;2023-04-20T00:01:57;102172.19;;;7.25;100.00
28448;BME280;15675;52.870;-1.416;2023-04-20T00:04:27;102172.81;;;6.77;100.00
28448;BME280;15675;52.870;-1.416;2023-04-20T00:06:53;102171.56;;;7.09;100.00
28448;BME280;15675;52.870;-1.416;2023-04-20T00:09:21;102165.53;;;7.09;100.00
28448;BME280;15675;52.870;-1.416;2023-04-20T00:11:46;102168.69;;;7.02;100.00
28448;BME280;15675;52.870;-1.416;2023-04-20T00:14:13;102163.63;;;7.05;100.00
28448;BME280;15675;52.870;-1.416;2023-04-20T00:16:38;102162.44;;;6.97;100.00
28448;BME280;15675;52.870;-1.416;2023-04-20T00:19:04;102164.16;;;7.17;100.00
28448;BME280;15675;52.870;-1.416;2023-04-20T00:21:31;102163.75;;;7.08;100.00
28448;BME280;15675;52.870;-1.416;2023-04-20T00:23:57;102158.22;;;6.99;100.00
28448;BME280;15675;52.870;-1.416;2023-04-20T00:26:22;102160.00;;;7.00;100.00
28448;BME280;15675;52.870;-1.416;2023-04-20T00:28:49;102161.50;;;6.95;100.00
28448;BME280;15675;52.870;-1.416;2023-04-20T00:31:15;102153.00;;;6.97;100.00
28448;BME280;15675;52.870;-1.416;2023-04-20T00:33:40;102152.59;;;6.88;100.00
28448;BME280;15675;52.870;-1.416;2023-04-20T00:36:06;102149.91;;;6.85;100.00
28448;BME280;15675;52.870;-1.416;2023-04-20T00:38:31;102156.78;;;6.84;100.00
28448;BME280;15675;52.870;-1.416;2023-04-20T00:40:57;102150.47;;;6.78;100.00
28448;BME280;15675;52.870;-1.416;2023-04-20T00:43:23;102146.50;;;6.86;100.00
28448;BME280;15675;52.870;-1.416;2023-04-20T00:45:48;102143.03;;;6.85;100.00
28448;BME280;15675;52.870;-1.416;2023-04-20T00:48:16;102143.56;;;6.98;100.00
28448;BME280;15675;52.870;-1.416;2023-04-20T00:50:43;102145.03;;;6.93;100.00
28448;BME280;15675;52.870;-1.416;2023-04-20T00:53:09;102142.41;;;6.70;100.00
28448;BME280;15675;52.870;-1.416;2023-04-20T00:55:36;102133.22;;;6.98;100.00
28448;BME280;15675;52.870;-1.416;2023-04-20T00:58:02;102131.19;;;6.69;100.00
28448;BME280;15675;52.870;-1.416;2023-04-20T01:00:28;102128.66;;;6.71;100.00
28448;BME280;15675;52.870;-1.416;2023-04-20T01:02:53;102125.94;;;6.87;100.00
28448;BME280;15675;52.870;-1.416;2023-04-20T01:05:19;102123.63;;;6.74;100.00
28448;BME280;15675;52.870;-1.416;2023-04-20T01:07:45;102120.38;;;6.78;100.00
28448;BME280;15675;52.870;-1.416;2023-04-20T01:10:11;102117.44;;;6.90;100.00
28448;BME280;15675;52.870;-1.416;2023-04-20T01:12:36;102117.03;;;6.81;100.00
28448;BME280;15675;52.870;-1.416;2023-04-20T01:15:05;102113.75;;;6.64;100.00
28448;BME280;15675;52.870;-1.416;2023-04-20T01:17:32;102106.41;;;6.73;100.00
28448;BME280;15675;52.870;-1.416;2023-04-20T01:19:58;102108.13;;;7.16;100.00
28448;BME280;15675;52.870;-1.416;2023-04-20T01:22:24;102101.81;;;6.87;100.00
28448;BME280;15675;52.870;-1.416;2023-04-20T01:24:50;102106.09;;;6.86;100.00
28448;BME280;15675;52.870;-1.416;2023-04-20T01:27:16;102113.59;;;7.01;100.00
28448;BME280;15675;52.870;-1.416;2023-04-20T01:29:42;102100.63;;;7.00;100.00
28448;BME280;15675;52.870;-1.416;2023-04-20T01:32:09;102108.47;;;6.82;100.00
28448;BME280;15675;52.870;-1.416;2023-04-20T01:34:35;102099.78;;;6.80;100.00
28448;BME280;15675;52.870;-1.416;2023-04-20T01:37:01;102100.72;;;6.61;100.00
28448;BME280;15675;52.870;-1.416;2023-04-20T01:39:27;102096.38;;;7.02;100.00
28448;BME280;15675;52.870;-1.416;2023-04-20T01:41:53;102102.25;;;6.77;100.00
28448;BME280;15675;52.870;-1.416;2023-04-20T01:44:18;102102.06;;;6.72;100.00
28448;BME280;15675;52.870;-1.416;2023-04-20T01:46:44;102094.63;;;6.80;100.00
28448;BME280;15675;52.870;-1.416;2023-04-20T01:49:09;102096.59;;;6.64;100.00
28448;BME280;15675;52.870;-1.416;2023-04-20T01:51:35;102098.22;;;6.83;100.00
28448;BME280;15675;52.870;-1.416;2023-04-20T01:54:01;102094.69;;;6.60;100.00
28448;BME280;15675;52.870;-1.416;2023-04-20T01:56:27;102082.72;;;6.83;100.00
28448;BME280;15675;52.870;-1.416;2023-04-20T01:58:53;102091.16;;;7.00;100.00
28448;BME280;15675;52.870;-1.416;2023-04-20T02:01:19;102089.91;;;6.90;100.00
28448;BME280;15675;52.870;-1.416;2023-04-20T02:03:44;102079.41;;;6.86;100.00
28448;BME280;15675;52.870;-1.416;2023-04-20T02:06:10;102083.47;;;6.81;100.00
28448;BME280;15675;52.870;-1.416;2023-04-20T02:08:35;102079.63;;;6.71;100.00
28448;BME280;15675;52.870;-1.416;2023-04-20T02:11:01;102081.28;;;6.69;100.00
28448;BME280;15675;52.870;-1.416;2023-04-20T02:13:27;102084.22;;;6.78;100.00
28448;BME280;15675;52.870;-1.416;2023-04-20T02:15:53;102084.28;;;6.80;100.00
28448;BME280;15675;52.870;-1.416;2023-04-20T02:18:18;102090.81;;;6.70;100.00
28448;BME280;15675;52.870;-1.416;2023-04-20T02:20:45;102090.41;;;6.61;100.00
28448;BME280;15675;52.870;-1.416;2023-04-20T02:23:11;102085.72;;;6.71;100.00
28448;BME280;15675;52.870;-1.416;2023-04-20T02:25:36;102085.63;;;6.49;100.00
28448;BME280;15675;52.870;-1.416;2023-04-20T02:28:02;102087.50;;;6.74;100.00
28448;BME280;15675;52.870;-1.416;2023-04-20T02:30:28;102086.19;;;6.84;100.00
28448;BME280;15675;52.870;-1.416;2023-04-20T02:32:53;102084.06;;;6.95;100.00
28448;BME280;15675;52.870;-1.416;2023-04-20T02:35:19;102078.50;;;6.85;100.00
28448;BME280;15675;52.870;-1.416;2023-04-20T02:37:45;102078.50;;;6.85;100.00
28448;BME280;15675;52.870;-1.416;2023-04-20T02:40:12;102079.00;;;6.77;100.00
28448;BME280;15675;52.870;-1.416;2023-04-20T02:42:38;102077.94;;;6.93;100.00
28448;BME280;15675;52.870;-1.416;2023-04-20T02:45:03;102070.47;;;6.78;100.00
28448;BME280;15675;52.870;-1.416;2023-04-20T02:47:29;102081.97;;;6.86;100.00
28448;BME280;15675;52.870;-1.416;2023-04-20T02:49:55;102082.91;;;6.88;100.00
28448;BME280;15675;52.870;-1.416;2023-04-20T02:52:20;102080.66;;;6.74;100.00
28448;BME280;15675;52.870;-1.416;2023-04-20T02:54:46;102077.56;;;6.62;100.00
28448;BME280;15675;52.870;-1.416;2023-04-20T02:57:12;102070.97;;;6.69;100.00
28448;BME280;15675;52.870;-1.416;2023-04-20T02:59:37;102074.66;;;6.97;100.00
28448;BME280;15675;52.870;-1.416;2023-04-20T03:02:03;102074.06;;;6.81;100.00
28448;BME280;15675;52.870;-1.416;2023-04-20T03:04:29;102070.13;;;6.91;100.00
28448;BME280;15675;52.870;-1.416;2023-04-20T03:06:55;102071.72;;;6.87;100.00
28448;BME280;15675;52.870;-1.416;2023-04-20T03:09:22;102070.56;;;6.81;100.00
28448;BME280;15675;52.870;-1.416;2023-04-20T03:11:48;102065.34;;;6.79;100.00
28448;BME280;15675;52.870;-1.416;2023-04-20T03:14:14;102075.81;;;6.82;100.00
28448;BME280;15675;52.870;-1.416;2023-04-20T03:16:39;102061.38;;;7.08;100.00
28448;BME280;15675;52.870;-1.416;2023-04-20T03:19:06;102068.88;;;7.25;100.00
28448;BME280;15675;52.870;-1.416;2023-04-20T03:21:31;102070.22;;;7.38;100.00
28448;BME280;15675;52.870;-1.416;2023-04-20T03:23:58;102074.06;;;6.81;100.00
28448;BME280;15675;52.870;-1.416;2023-04-20T03:26:23;102067.22;;;7.04;100.00
28448;BME280;15675;52.870;-1.416;2023-04-20T03:28:49;102066.38;;;6.62;100.00
28448;BME280;15675;52.870;-1.416;2023-04-20T03:31:15;102065.00;;;6.70;100.00
28448;BME280;15675;52.870;-1.416;2023-04-20T03:33:41;102070.84;;;7.09;100.00
28448;BME280;15675;52.870;-1.416;2023-04-20T03:36:06;102071.22;;;6.75;100.00
28448;BME280;15675;52.870;-1.416;2023-04-20T03:38:32;102069.53;;;6.98;100.00
28448;BME280;15675;52.870;-1.416;2023-04-20T03:40:57;102062.84;;;6.81;100.00
28448;BME280;15675;52.870;-1.416;2023-04-20T03:43:23;102068.38;;;6.90;100.00
28448;BME280;15675;52.870;-1.416;2023-04-20T03:45:48;102069.13;;;6.66;100.00
28448;BME280;15675;52.870;-1.416;2023-04-20T03:48:14;102079.13;;;6.80;100.00
28448;BME280;15675;52.870;-1.416;2023-04-20T03:50:39;102067.31;;;6.85;100.00
28448;BME280;15675;52.870;-1.416;2023-04-20T03:53:05;102080.09;;;7.03;100.00
28448;BME280;15675;52.870;-1.416;2023-04-20T03:55:30;102073.97;;;7.01;100.00
28448;BME280;15675;52.870;-1.416;2023-04-20T03:57:56;102072.53;;;6.86;100.00
28448;BME280;15675;52.870;-1.416;2023-04-20T04:00:21;102074.81;;;6.79;100.00
28448;BME280;15675;52.870;-1.416;2023-04-20T04:02:47;102075.69;;;6.79;100.00
28448;BME280;15675;52.870;-1.416;2023-04-20T04:05:12;102071.47;;;6.81;100.00
28448;BME280;15675;52.870;-1.416;2023-04-20T04:07:38;102061.91;;;6.57;100.00
28448;BME280;15675;52.870;-1.416;2023-04-20T04:10:03;102068.81;;;6.80;100.00
28448;BME280;15675;52.870;-1.416;2023-04-20T04:12:30;102069.94;;;6.65;100.00
28448;BME280;15675;52.870;-1.416;2023-04-20T04:14:56;102062.09;;;6.83;100.00
28448;BME280;15675;52.870;-1.416;2023-04-20T04:17:21;102060.63;;;6.90;100.00
28448;BME280;15675;52.870;-1.416;2023-04-20T04:19:47;102068.69;;;6.98;100.00
28448;BME280;15675;52.870;-1.416;2023-04-20T04:22:12;102070.16;;;6.70;100.00
28448;BME280;15675;52.870;-1.416;2023-04-20T04:24:38;102073.50;;;6.88;100.00
28448;BME280;15675;52.870;-1.416;2023-04-20T04:27:06;102070.97;;;6.69;100.00
28448;BME280;15675;52.870;-1.416;2023-04-20T04:29:32;102069.97;;;6.44;100.00
28448;BME280;15675;52.870;-1.416;2023-04-20T04:32:01;102065.84;;;6.49;100.00
28448;BME280;15675;52.870;-1.416;2023-04-20T04:34:27;102070.25;;;6.31;100.00
28448;BME280;15675;52.870;-1.416;2023-04-20T04:36:54;102065.75;;;6.27;100.00
28448;BME280;15675;52.870;-1.416;2023-04-20T04:39:19;102072.53;;;6.44;100.00
28448;BME280;15675;52.870;-1.416;2023-04-20T04:41:45;102075.81;;;6.40;100.00
28448;BME280;15675;52.870;-1.416;2023-04-20T04:44:11;102075.56;;;6.14;100.00
28448;BME280;15675;52.870;-1.416;2023-04-20T04:46:36;102071.03;;;6.30;100.00
28448;BME280;15675;52.870;-1.416;2023-04-20T04:49:02;102076.97;;;6.48;100.00
28448;BME280;15675;52.870;-1.416;2023-04-20T04:51:28;102080.91;;;6.38;100.00
28448;BME280;15675;52.870;-1.416;2023-04-20T04:53:54;102073.34;;;6.43;100.00
28448;BME280;15675;52.870;-1.416;2023-04-20T04:56:20;102080.56;;;6.31;100.00
28448;BME280;15675;52.870;-1.416;2023-04-20T04:58:45;102077.72;;;6.25;100.00
28448;BME280;15675;52.870;-1.416;2023-04-20T05:01:12;102077.34;;;6.36;100.00
28448;BME280;15675;52.870;-1.416;2023-04-20T05:03:37;102085.66;;;6.70;100.00
28448;BME280;15675;52.870;-1.416;2023-04-20T05:06:03;102086.19;;;6.42;100.00
28448;BME280;15675;52.870;-1.416;2023-04-20T05:08:28;102077.31;;;6.15;100.00
28448;BME280;15675;52.870;-1.416;2023-04-20T05:10:56;102090.16;;;6.54;100.00
28448;BME280;15675;52.870;-1.416;2023-04-20T05:13:21;102087.03;;;6.62;100.00
28448;BME280;15675;52.870;-1.416;2023-04-20T05:15:47;102091.09;;;6.78;100.00
28448;BME280;15675;52.870;-1.416;2023-04-20T05:18:12;102084.44;;;6.62;100.00
28448;BME280;15675;52.870;-1.416;2023-04-20T05:20:38;102087.81;;;6.61;100.00
28448;BME280;15675;52.870;-1.416;2023-04-20T05:23:03;102088.91;;;6.66;100.00
28448;BME280;15675;52.870;-1.416;2023-04-20T05:25:29;102094.81;;;6.84;100.00
28448;BME280;15675;52.870;-1.416;2023-04-20T05:27:55;102097.91;;;6.76;100.00
28448;BME280;15675;52.870;-1.416;2023-04-20T05:30:21;102100.22;;;6.69;100.00
28448;BME280;15675;52.870;-1.416;2023-04-20T05:32:46;102092.75;;;6.76;100.00
28448;BME280;15675;52.870;-1.416;2023-04-20T05:35:12;102103.91;;;6.96;100.00
28448;BME280;15675;52.870;-1.416;2023-04-20T05:37:38;102098.09;;;6.80;100.00
28448;BME280;15675;52.870;-1.416;2023-04-20T05:40:04;102104.19;;;6.61;100.00
28448;BME280;15675;52.870;-1.416;2023-04-20T05:42:31;102100.72;;;6.61;100.00
28448;BME280;15675;52.870;-1.416;2023-04-20T05:44:56;102104.81;;;6.98;100.00
28448;BME280;15675;52.870;-1.416;2023-04-20T05:47:22;102111.06;;;6.82;100.00
28448;BME280;15675;52.870;-1.416;2023-04-20T05:49:47;102103.38;;;6.83;100.00
28448;BME280;15675;52.870;-1.416;2023-04-20T05:52:12;102104.41;;;7.31;100.00
28448;BME280;15675;52.870;-1.416;2023-04-20T05:54:38;102111.63;;;7.62;100.00
28448;BME280;15675;52.870;-1.416;2023-04-20T05:57:03;102105.00;;;7.46;100.00
28448;BME280;15675;52.870;-1.416;2023-04-20T05:59:30;102103.94;;;7.41;100.00
28448;BME280;15675;52.870;-1.416;2023-04-20T06:01:56;102102.19;;;7.40;100.00
28448;BME280;15675;52.870;-1.416;2023-04-20T06:04:21;102102.31;;;7.43;100.00
28448;BME280;15675;52.870;-1.416;2023-04-20T06:06:47;102103.75;;;7.36;100.00
28448;BME280;15675;52.870;-1.416;2023-04-20T06:09:12;102102.03;;;7.59;100.00
28448;BME280;15675;52.870;-1.416;2023-04-20T06:11:38;102110.63;;;7.81;100.00
28448;BME280;15675;52.870;-1.416;2023-04-20T06:14:04;102117.69;;;7.85;100.00
28448;BME280;15675;52.870;-1.416;2023-04-20T06:16:29;102109.91;;;7.85;100.00
28448;BME280;15675;52.870;-1.416;2023-04-20T06:18:55;102118.38;;;7.81;100.00
28448;BME280;15675;52.870;-1.416;2023-04-20T06:21:21;102116.75;;;7.60;100.00
28448;BME280;15675;52.870;-1.416;2023-04-20T06:23:48;102121.25;;;8.13;100.00
28448;BME280;15675;52.870;-1.416;2023-04-20T06:26:14;102113.84;;;7.98;100.00
28448;BME280;15675;52.870;-1.416;2023-04-20T06:28:40;102114.22;;;8.09;100.00
28448;BME280;15675;52.870;-1.416;2023-04-20T06:31:06;102118.19;;;8.48;100.00
28448;BME280;15675;52.870;-1.416;2023-04-20T06:33:31;102109.94;;;8.09;100.00
28448;BME280;15675;52.870;-1.416;2023-04-20T06:35:57;102117.19;;;8.20;100.00
28448;BME280;15675;52.870;-1.416;2023-04-20T06:38:23;102114.31;;;8.36;100.00
28448;BME280;15675;52.870;-1.416;2023-04-20T06:40:50;102111.16;;;8.21;100.00
28448;BME280;15675;52.870;-1.416;2023-04-20T06:43:15;102101.00;;;8.01;100.00
28448;BME280;15675;52.870;-1.416;2023-04-20T06:45:41;102105.53;;;8.07;100.00
28448;BME280;15675;52.870;-1.416;2023-04-20T06:48:06;102108.16;;;8.33;100.00
28448;BME280;15675;52.870;-1.416;2023-04-20T06:50:32;102104.00;;;8.38;100.00
28448;BME280;15675;52.870;-1.416;2023-04-20T06:52:58;102108.06;;;8.29;100.00
28448;BME280;15675;52.870;-1.416;2023-04-20T06:55:23;102106.34;;;8.30;100.00
28448;BME280;15675;52.870;-1.416;2023-04-20T06:57:49;102108.34;;;8.39;100.00
28448;BME280;15675;52.870;-1.416;2023-04-20T07:00:15;102102.38;;;8.16;100.00
28448;BME280;15675;52.870;-1.416;2023-04-20T07:02:50;102093.72;;;8.15;100.00
28448;BME280;15675;52.870;-1.416;2023-04-20T07:05:16;102091.22;;;8.17;100.00
28448;BME280;15675;52.870;-1.416;2023-04-20T07:07:43;102095.41;;;8.39;100.00
28448;BME280;15675;52.870;-1.416;2023-04-20T07:10:12;102097.97;;;8.37;100.00
28448;BME280;15675;52.870;-1.416;2023-04-20T07:12:38;102094.28;;;8.82;100.00
28448;BME280;15675;52.870;-1.416;2023-04-20T07:15:05;102102.69;;;8.49;100.00
28448;BME280;15675;52.870;-1.416;2023-04-20T07:17:31;102096.03;;;8.32;100.00
28448;BME280;15675;52.870;-1.416;2023-04-20T07:19:57;102101.06;;;8.51;100.00
28448;BME280;15675;52.870;-1.416;2023-04-20T07:22:30;102085.16;;;8.66;100.00
28448;BME280;15675;52.870;-1.416;2023-04-20T07:24:56;102098.94;;;8.65;100.00
28448;BME280;15675;52.870;-1.416;2023-04-20T07:27:21;102098.56;;;8.54;100.00
28448;BME280;15675;52.870;-1.416;2023-04-20T07:29:47;102093.34;;;8.78;100.00
28448;BME280;15675;52.870;-1.416;2023-04-20T07:32:12;102093.16;;;8.72;100.00
28448;BME280;15675;52.870;-1.416;2023-04-20T07:34:38;102087.03;;;8.97;100.00
28448;BME280;15675;52.870;-1.416;2023-04-20T07:37:04;102093.19;;;9.01;100.00
28448;BME280;15675;52.870;-1.416;2023-04-20T07:39:30;102086.44;;;8.79;100.00
28448;BME280;15675;52.870;-1.416;2023-04-20T07:41:55;102074.09;;;8.97;100.00
28448;BME280;15675;52.870;-1.416;2023-04-20T07:44:21;102079.94;;;8.92;100.00
28448;BME280;15675;52.870;-1.416;2023-04-20T07:46:47;102078.19;;;9.18;100.00
28448;BME280;15675;52.870;-1.416;2023-04-20T07:49:14;102083.00;;;9.35;100.00
28448;BME280;15675;52.870;-1.416;2023-04-20T07:51:40;102082.47;;;9.45;100.00
28448;BME280;15675;52.870;-1.416;2023-04-20T07:54:05;102084.41;;;9.52;100.00
28448;BME280;15675;52.870;-1.416;2023-04-20T07:56:32;102076.53;;;9.79;100.00
28448;BME280;15675;52.870;-1.416;2023-04-20T07:58:57;102078.13;;;9.74;100.00
28448;BME280;15675;52.870;-1.416;2023-04-20T08:01:25;102065.19;;;9.76;100.00
28448;BME280;15675;52.870;-1.416;2023-04-20T08:03:51;102090.13;;;9.71;100.00
28448;BME280;15675;52.870;-1.416;2023-04-20T08:06:19;102072.50;;;9.89;100.00
28448;BME280;15675;52.870;-1.416;2023-04-20T08:08:44;102069.28;;;9.98;100.00
28448;BME280;15675;52.870;-1.416;2023-04-20T08:11:10;102072.03;;;10.04;100.00
28448;BME280;15675;52.870;-1.416;2023-04-20T08:13:36;102066.97;;;9.77;100.00
28448;BME280;15675;52.870;-1.416;2023-04-20T08:16:02;102057.34;;;9.73;100.00
28448;BME280;15675;52.870;-1.416;2023-04-20T08:18:27;102060.97;;;10.11;100.00
28448;BME280;15675;52.870;-1.416;2023-04-20T08:20:55;102056.63;;;10.42;98.78
28448;BME280;15675;52.870;-1.416;2023-04-20T08:23:20;102051.63;;;10.50;99.42
28448;BME280;15675;52.870;-1.416;2023-04-20T08:25:52;102051.25;;;10.69;97.92
28448;BME280;15675;52.870;-1.416;2023-04-20T08:28:18;102051.75;;;10.55;93.57
28448;BME280;15675;52.870;-1.416;2023-04-20T08:30:44;102050.16;;;10.26;87.84
28448;BME280;15675;52.870;-1.416;2023-04-20T08:33:11;102044.66;;;10.84;88.38
28448;BME280;15675;52.870;-1.416;2023-04-20T08:35:36;102039.13;;;10.70;82.30
28448;BME280;15675;52.870;-1.416;2023-04-20T08:38:02;102043.41;;;11.04;81.38
28448;BME280;15675;52.870;-1.416;2023-04-20T08:40:29;102047.09;;;11.16;80.15
28448;BME280;15675;52.870;-1.416;2023-04-20T08:42:55;102037.19;;;10.98;78.81
28448;BME280;15675;52.870;-1.416;2023-04-20T08:45:21;102034.31;;;11.25;78.15
28448;BME280;15675;52.870;-1.416;2023-04-20T08:47:48;102041.47;;;11.35;77.82
28448;BME280;15675;52.870;-1.416;2023-04-20T08:50:15;102032.41;;;11.57;75.47
28448;BME280;15675;52.870;-1.416;2023-04-20T08:52:40;102035.13;;;11.22;76.12
28448;BME280;15675;52.870;-1.416;2023-04-20T08:55:06;102037.38;;;11.07;74.39
28448;BME280;15675;52.870;-1.416;2023-04-20T08:57:32;102033.50;;;11.26;75.81
28448;BME280;15675;52.870;-1.416;2023-04-20T08:59:58;102026.13;;;11.46;74.42
28448;BME280;15675;52.870;-1.416;2023-04-20T09:02:23;102024.44;;;11.50;71.70
28448;BME280;15675;52.870;-1.416;2023-04-20T09:04:59;102019.53;;;11.64;68.26
28448;BME280;15675;52.870;-1.416;2023-04-20T09:07:25;102017.38;;;11.44;65.06
28448;BME280;15675;52.870;-1.416;2023-04-20T09:09:55;102009.72;;;11.49;64.58
28448;BME280;15675;52.870;-1.416;2023-04-20T09:12:21;102014.00;;;11.92;65.68
28448;BME280;15675;52.870;-1.416;2023-04-20T09:14:47;102012.19;;;11.88;64.45
28448;BME280;15675;52.870;-1.416;2023-04-20T09:17:14;102012.34;;;11.95;63.99
28448;BME280;15675;52.870;-1.416;2023-04-20T09:19:45;102015.53;;;11.83;63.71
28448;BME280;15675;52.870;-1.416;2023-04-20T09:22:16;102011.69;;;11.62;63.28
28448;BME280;15675;52.870;-1.416;2023-04-20T09:24:41;101992.75;;;12.15;65.04
28448;BME280;15675;52.870;-1.416;2023-04-20T09:27:17;102005.50;;;12.01;62.39
28448;BME280;15675;52.870;-1.416;2023-04-20T09:29:44;101993.84;;;11.81;60.41
28448;BME280;15675;52.870;-1.416;2023-04-20T09:32:21;101980.19;;;11.92;60.57
28448;BME280;15675;52.870;-1.416;2023-04-20T09:34:47;101979.41;;;11.51;60.90
28448;BME280;15675;52.870;-1.416;2023-04-20T09:37:16;102000.94;;;11.44;60.20
28448;BME280;15675;52.870;-1.416;2023-04-20T09:39:43;101996.75;;;11.95;61.47
28448;BME280;15675;52.870;-1.416;2023-04-20T09:42:13;101993.69;;;11.71;60.00
28448;BME280;15675;52.870;-1.416;2023-04-20T09:44:39;101974.25;;;11.98;60.68
28448;BME280;15675;52.870;-1.416;2023-04-20T09:47:07;101973.78;;;11.73;58.26
28448;BME280;15675;52.870;-1.416;2023-04-20T09:49:33;101972.81;;;12.16;57.04
28448;BME280;15675;52.870;-1.416;2023-04-20T09:52:02;101974.78;;;12.29;56.27
28448;BME280;15675;52.870;-1.416;2023-04-20T09:54:28;101977.25;;;12.21;57.49
28448;BME280;15675;52.870;-1.416;2023-04-20T09:56:58;101975.94;;;11.96;57.46
28448;BME280;15675;52.870;-1.416;2023-04-20T09:59:25;101968.91;;;12.42;59.77
28448;BME280;15675;52.870;-1.416;2023-04-20T10:01:50;101973.16;;;12.36;59.64
28448;BME280;15675;52.870;-1.416;2023-04-20T10:04:16;101970.84;;;12.02;55.29
28448;BME280;15675;52.870;-1.416;2023-04-20T10:06:55;101960.50;;;12.07;54.55
28448;BME280;15675;52.870;-1.416;2023-04-20T10:09:24;101952.16;;;12.26;56.60
28448;BME280;15675;52.870;-1.416;2023-04-20T10:11:51;101961.38;;;12.61;57.62
28448;BME280;15675;52.870;-1.416;2023-04-20T10:14:21;101954.72;;;12.80;55.77
28448;BME280;15675;52.870;-1.416;2023-04-20T10:17:06;101935.28;;;12.58;55.08
28448;BME280;15675;52.870;-1.416;2023-04-20T10:19:43;101947.38;;;12.53;57.50
28448;BME280;15675;52.870;-1.416;2023-04-20T10:22:11;101948.66;;;12.23;57.15
28448;BME280;15675;52.870;-1.416;2023-04-20T10:24:37;101953.66;;;12.67;57.16
28448;BME280;15675;52.870;-1.416;2023-04-20T10:27:03;101944.13;;;12.69;55.89
28448;BME280;15675;52.870;-1.416;2023-04-20T10:29:29;101941.38;;;12.57;53.15
28448;BME280;15675;52.870;-1.416;2023-04-20T10:31:56;101927.25;;;12.42;54.70
28448;BME280;15675;52.870;-1.416;2023-04-20T10:34:35;101919.09;;;12.79;53.99
28448;BME280;15675;52.870;-1.416;2023-04-20T10:37:11;101909.47;;;12.75;53.18
28448;BME280;15675;52.870;-1.416;2023-04-20T10:39:45;101912.72;;;13.26;55.35
28448;BME280;15675;52.870;-1.416;2023-04-20T10:42:10;101911.44;;;12.90;53.13
28448;BME280;15675;52.870;-1.416;2023-04-20T10:44:49;101905.81;;;12.62;50.89
28448;BME280;15675;52.870;-1.416;2023-04-20T10:47:15;101879.94;;;12.73;51.76
28448;BME280;15675;52.870;-1.416;2023-04-20T10:49:42;101897.94;;;12.56;51.61
28448;BME280;15675;52.870;-1.416;2023-04-20T10:52:07;101894.84;;;12.83;51.19
28448;BME280;15675;52.870;-1.416;2023-04-20T10:54:37;101908.41;;;12.60;51.27
28448;BME280;15675;52.870;-1.416;2023-04-20T10:57:04;101904.19;;;12.67;51.43
28448;BME280;15675;52.870;-1.416;2023-04-20T10:59:31;101917.31;;;12.76;52.22
28448;BME280;15675;52.870;-1.416;2023-04-20T11:01:59;101909.72;;;12.95;52.50
28448;BME280;15675;52.870;-1.416;2023-04-20T11:04:30;101936.09;;;12.54;52.19
28448;BME280;15675;52.870;-1.416;2023-04-20T11:07:09;101914.19;;;13.05;53.01
28448;BME280;15675;52.870;-1.416;2023-04-20T11:09:37;101908.91;;;12.98;52.71
28448;BME280;15675;52.870;-1.416;2023-04-20T11:12:08;101918.19;;;12.75;53.18
28448;BME280;15675;52.870;-1.416;2023-04-20T11:14:37;101906.59;;;13.24;53.95
28448;BME280;15675;52.870;-1.416;2023-04-20T11:17:05;101914.41;;;13.24;53.31
28448;BME280;15675;52.870;-1.416;2023-04-20T11:19:33;101900.28;;;13.02;53.23
28448;BME280;15675;52.870;-1.416;2023-04-20T11:22:00;101916.53;;;12.84;52.34
28448;BME280;15675;52.870;-1.416;2023-04-20T11:24:28;101902.63;;;12.82;52.69
28448;BME280;15675;52.870;-1.416;2023-04-20T11:26:54;101874.59;;;12.64;51.94
28448;BME280;15675;52.870;-1.416;2023-04-20T11:29:34;101882.84;;;12.98;51.82
28448;BME280;15675;52.870;-1.416;2023-04-20T11:32:02;101875.19;;;13.11;51.47
28448;BME280;15675;52.870;-1.416;2023-04-20T11:34:29;101855.00;;;12.93;50.98
28448;BME280;15675;52.870;-1.416;2023-04-20T11:36:55;101873.06;;;13.53;51.86
28448;BME280;15675;52.870;-1.416;2023-04-20T11:39:27;101860.69;;;13.35;50.44
28448;BME280;15675;52.870;-1.416;2023-04-20T11:41:54;101862.78;;;13.70;51.03
28448;BME280;15675;52.870;-1.416;2023-04-20T11:44:25;101861.16;;;13.83;50.46
28448;BME280;15675;52.870;-1.416;2023-04-20T11:46:51;101846.34;;;13.80;50.81
28448;BME280;15675;52.870;-1.416;2023-04-20T11:49:25;101846.81;;;13.36;49.65
28448;BME280;15675;52.870;-1.416;2023-04-20T11:51:51;101836.22;;;13.24;48.95
28448;BME280;15675;52.870;-1.416;2023-04-20T11:54:17;101833.94;;;13.55;49.30
28448;BME280;15675;52.870;-1.416;2023-04-20T11:56:46;101839.47;;;13.95;50.00
28448;BME280;15675;52.870;-1.416;2023-04-20T11:59:12;101817.50;;;13.67;48.04
28448;BME280;15675;52.870;-1.416;2023-04-20T12:01:44;101825.47;;;13.80;48.75
28448;BME280;15675;52.870;-1.416;2023-04-20T12:04:09;101819.41;;;13.85;48.28
28448;BME280;15675;52.870;-1.416;2023-04-20T12:06:35;101813.31;;;13.81;48.36
28448;BME280;15675;52.870;-1.416;2023-04-20T12:09:00;101818.44;;;13.73;47.59
28448;BME280;15675;52.870;-1.416;2023-04-20T12:11:26;101812.59;;;14.05;48.24
28448;BME280;15675;52.870;-1.416;2023-04-20T12:13:52;101798.66;;;14.06;47.88
28448;BME280;15675;52.870;-1.416;2023-04-20T12:16:19;101812.72;;;14.25;48.09
28448;BME280;15675;52.870;-1.416;2023-04-20T12:18:44;101806.56;;;14.17;48.19
28448;BME280;15675;52.870;-1.416;2023-04-20T12:21:10;101791.03;;;14.39;47.84
28448;BME280;15675;52.870;-1.416;2023-04-20T12:23:35;101803.94;;;14.11;46.12
28448;BME280;15675;52.870;-1.416;2023-04-20T12:26:02;101788.09;;;13.89;45.40
28448;BME280;15675;52.870;-1.416;2023-04-20T12:28:29;101782.81;;;13.77;46.16
28448;BME280;15675;52.870;-1.416;2023-04-20T12:30:55;101792.44;;;13.86;46.25
28448;BME280;15675;52.870;-1.416;2023-04-20T12:33:21;101783.72;;;13.82;45.84
28448;BME280;15675;52.870;-1.416;2023-04-20T12:35:46;101783.78;;;13.88;46.09
28448;BME280;15675;52.870;-1.416;2023-04-20T12:38:12;101785.56;;;13.94;45.79